createdAt,value
2018-09-08T00:00:53.747Z,17.63
2018-09-08T00:03:21.582Z,15.60
2018-09-08T00:05:49.526Z,13.93
2018-09-08T00:08:17.325Z,17.53
2018-09-08T00:10:45.115Z,18.07
2018-09-08T00:13:12.987Z,17.33
2018-09-08T00:15:45.987Z,18.90
2018-09-08T00:18:19.019Z,16.97
2018-09-08T00:20:52.147Z,18.57
2018-09-08T00:23:25.195Z,18.00
2018-09-08T00:25:58.116Z,18.53
2018-09-08T00:28:41.542Z,14.40
2018-09-08T00:31:15.232Z,16.00
2018-09-08T00:33:43.131Z,16.13
2018-09-08T00:36:11.067Z,15.70
2018-09-08T00:38:39.310Z,16.60
2018-09-08T00:41:07.228Z,20.17
2018-09-08T00:43:35.023Z,17.63
2018-09-08T00:46:02.852Z,20.23
2018-09-08T00:48:30.673Z,20.47
2018-09-08T00:50:58.783Z,19.03
2018-09-08T00:53:26.622Z,16.97
2018-09-08T00:55:54.479Z,16.70
2018-09-08T00:58:22.258Z,20.17
2018-09-08T01:00:50.071Z,17.53
2018-09-08T01:03:17.943Z,17.73
2018-09-08T01:05:45.728Z,18.07
2018-09-08T01:08:13.530Z,17.57
2018-09-08T01:10:41.396Z,19.17
2018-09-08T01:13:09.242Z,16.70
2018-09-08T01:15:37.332Z,18.23
2018-09-08T01:18:05.125Z,15.57
2018-09-08T01:20:32.936Z,15.90
2018-09-08T01:23:00.766Z,17.27
2018-09-08T01:25:28.724Z,17.00
2018-09-08T01:27:56.557Z,16.80
2018-09-08T01:30:24.525Z,17.63
2018-09-08T01:32:52.336Z,18.37
2018-09-08T01:35:20.108Z,16.30
2018-09-08T01:37:47.959Z,16.47
2018-09-08T01:40:15.767Z,15.77
2018-09-08T01:42:43.592Z,16.13
2018-09-08T01:45:11.431Z,16.63
2018-09-08T01:47:39.378Z,15.57
2018-09-08T01:50:07.241Z,16.47
2018-09-08T01:52:35.079Z,15.40
2018-09-08T01:55:02.874Z,17.43
2018-09-08T01:57:30.678Z,17.70
2018-09-08T01:59:58.482Z,19.43
2018-09-08T02:02:26.266Z,20.23
2018-09-08T02:04:54.223Z,15.70
2018-09-08T02:07:21.995Z,13.67
2018-09-08T02:09:49.781Z,15.03
2018-09-08T02:12:17.573Z,16.93
2018-09-08T02:14:45.502Z,14.23
2018-09-08T02:17:13.370Z,20.33
2018-09-08T02:19:41.214Z,18.63
2018-09-08T02:22:09.090Z,17.00
2018-09-08T02:24:36.947Z,17.07
2018-09-08T02:27:04.989Z,14.67
2018-09-08T02:29:32.783Z,16.93
2018-09-08T02:32:00.563Z,15.43
2018-09-08T02:34:28.432Z,17.23
2018-09-08T02:36:56.202Z,18.33
2018-09-08T02:39:24.023Z,14.47
2018-09-08T02:41:51.839Z,14.03
2018-09-08T02:44:19.599Z,15.07
2018-09-08T02:46:47.452Z,15.87
2018-09-08T02:49:15.279Z,14.50
2018-09-08T02:51:42.395Z,16.23
2018-09-08T02:54:09.523Z,14.77
2018-09-08T02:56:36.631Z,16.87
2018-09-08T02:59:03.686Z,14.47
2018-09-08T03:01:30.773Z,16.20
2018-09-08T03:03:57.942Z,16.90
2018-09-08T03:06:24.994Z,19.20
2018-09-08T03:08:52.100Z,15.67
2018-09-08T03:11:19.162Z,16.27
2018-09-08T03:13:46.304Z,14.47
2018-09-08T03:16:13.375Z,19.73
2018-09-08T03:18:40.424Z,17.73
2018-09-08T03:21:07.881Z,17.47
2018-09-08T03:23:34.986Z,16.57
2018-09-08T03:26:02.035Z,15.73
2018-09-08T03:28:29.159Z,16.73
2018-09-08T03:30:56.328Z,18.47
2018-09-08T03:33:23.395Z,17.77
2018-09-08T03:35:50.446Z,17.23
2018-09-08T03:38:17.578Z,16.23
2018-09-08T03:40:44.625Z,17.07
2018-09-08T03:43:11.736Z,17.33
2018-09-08T03:45:38.797Z,15.27
2018-09-08T03:48:05.845Z,17.30
2018-09-08T03:50:32.906Z,14.30
2018-09-08T03:53:00.055Z,16.17
2018-09-08T03:55:27.191Z,12.83
2018-09-08T03:57:54.296Z,16.27
2018-09-08T04:00:21.350Z,16.13
2018-09-08T04:02:49.212Z,17.43
2018-09-08T04:05:16.996Z,16.87
2018-09-08T04:07:44.852Z,15.20
2018-09-08T04:10:12.659Z,19.47
2018-09-08T04:12:40.522Z,18.03
2018-09-08T04:15:08.372Z,17.43
2018-09-08T04:17:36.189Z,20.47
2018-09-08T04:20:04.036Z,18.50
2018-09-08T04:22:35.140Z,18.10
2018-09-08T04:25:03.782Z,15.73
2018-09-08T04:27:31.646Z,17.30
2018-09-08T04:29:59.548Z,17.83
2018-09-08T04:32:27.487Z,17.13
2018-09-08T04:34:55.259Z,18.63
2018-09-08T04:37:23.198Z,18.87
2018-09-08T04:39:51.137Z,19.00
2018-09-08T04:42:18.943Z,19.00
2018-09-08T04:44:46.714Z,17.13
2018-09-08T04:47:14.641Z,15.50
2018-09-08T04:49:42.422Z,16.93
2018-09-08T04:52:10.215Z,16.80
2018-09-08T04:54:38.003Z,17.70
2018-09-08T04:57:05.894Z,17.33
2018-09-08T04:59:33.748Z,16.50
2018-09-08T05:02:01.647Z,16.73
2018-09-08T05:04:29.589Z,16.23
2018-09-08T05:06:57.395Z,19.27
2018-09-08T05:09:25.209Z,15.97
2018-09-08T05:11:53.068Z,18.63
2018-09-08T05:14:20.834Z,16.80
2018-09-08T05:16:49.200Z,12.93
2018-09-08T05:19:16.978Z,14.90
2018-09-08T05:21:44.788Z,15.70
2018-09-08T05:24:12.671Z,12.90
2018-09-08T05:26:40.523Z,12.93
2018-09-08T05:29:08.611Z,13.83
2018-09-08T05:31:36.456Z,18.33
2018-09-08T05:34:04.292Z,12.43
2018-09-08T05:36:32.152Z,19.03
2018-09-08T05:39:00.004Z,19.73
2018-09-08T05:41:27.928Z,18.47
2018-09-08T05:43:55.767Z,14.10
2018-09-08T05:46:23.614Z,11.70
2018-09-08T05:48:51.478Z,13.60
2018-09-08T05:51:19.251Z,12.50
2018-09-08T05:53:47.063Z,12.07
2018-09-08T05:56:14.922Z,11.17
2018-09-08T05:58:42.728Z,12.93
2018-09-08T06:01:10.571Z,10.50
2018-09-08T06:03:38.555Z,10.70
2018-09-08T06:06:06.335Z,13.97
2018-09-08T06:08:34.157Z,10.87
2018-09-08T06:11:02.299Z,11.43
2018-09-08T06:13:30.140Z,13.33
2018-09-08T06:15:57.933Z,11.43
2018-09-08T06:18:25.828Z,14.73
2018-09-08T06:20:53.890Z,12.30
2018-09-08T06:23:21.693Z,14.47
2018-09-08T06:25:49.497Z,10.67
2018-09-08T06:28:17.460Z,9.53
2018-09-08T06:30:45.253Z,13.17
2018-09-08T06:33:13.066Z,10.90
2018-09-08T06:35:40.926Z,11.67
2018-09-08T06:38:08.855Z,10.43
2018-09-08T06:40:36.875Z,12.00
2018-09-08T06:43:04.720Z,11.60
2018-09-08T06:45:32.557Z,11.03
2018-09-08T06:48:00.395Z,11.40
2018-09-08T06:50:28.200Z,11.20
2018-09-08T06:52:56.051Z,10.57
2018-09-08T06:55:23.984Z,15.27
2018-09-08T06:57:51.820Z,11.33
2018-09-08T07:00:19.601Z,14.70
2018-09-08T07:02:47.399Z,13.27
2018-09-08T07:05:15.327Z,11.63
2018-09-08T07:07:43.130Z,12.03
2018-09-08T07:10:10.947Z,10.13
2018-09-08T07:12:38.791Z,11.40
2018-09-08T07:15:06.657Z,11.47
2018-09-08T07:17:34.408Z,13.60
2018-09-08T07:20:02.268Z,11.80
2018-09-08T07:22:30.121Z,13.17
2018-09-08T07:24:57.954Z,10.60
2018-09-08T07:27:25.890Z,10.90
2018-09-08T07:29:53.735Z,8.70
2018-09-08T07:32:21.575Z,10.27
2018-09-08T07:34:49.403Z,9.53
2018-09-08T07:37:17.256Z,9.73
2018-09-08T07:39:45.054Z,10.60
2018-09-08T07:42:12.944Z,11.27
2018-09-08T07:44:40.766Z,9.40
2018-09-08T07:47:08.675Z,12.83
2018-09-08T07:49:36.587Z,8.93
2018-09-08T07:52:04.428Z,7.87
2018-09-08T07:54:33.184Z,8.60
2018-09-08T07:57:00.971Z,9.97
2018-09-08T07:59:28.750Z,8.57
2018-09-08T08:01:56.546Z,8.97
2018-09-08T08:04:24.607Z,9.70
2018-09-08T08:06:52.457Z,7.70
2018-09-08T08:09:20.196Z,7.77
2018-09-08T08:11:48.004Z,8.07
2018-09-08T08:14:15.770Z,8.30
2018-09-08T08:16:43.668Z,7.20
2018-09-08T08:19:11.568Z,7.87
2018-09-08T08:21:39.495Z,6.70
2018-09-08T08:24:07.456Z,7.00
2018-09-08T08:26:35.228Z,7.73
2018-09-08T08:29:03.090Z,7.40
2018-09-08T08:31:30.890Z,7.17
2018-09-08T08:33:58.879Z,7.00
2018-09-08T08:36:26.653Z,5.97
2018-09-08T08:38:55.156Z,7.37
2018-09-08T08:41:22.969Z,7.03
2018-09-08T08:43:50.832Z,7.43
2018-09-08T08:46:18.691Z,9.37
2018-09-08T08:48:46.451Z,7.60
2018-09-08T08:51:19.652Z,7.80
2018-09-08T08:53:52.846Z,7.47
2018-09-08T08:56:20.776Z,8.73
2018-09-08T08:58:48.667Z,7.67
2018-09-08T09:01:16.497Z,9.10
2018-09-08T09:03:44.292Z,7.77
2018-09-08T09:06:12.139Z,10.57
2018-09-08T09:08:40.486Z,9.17
2018-09-08T09:11:07.907Z,6.80
2018-09-08T09:13:35.934Z,8.13
2018-09-08T09:16:04.595Z,7.90
2018-09-08T09:18:38.840Z,7.00
2018-09-08T09:21:11.646Z,7.33
2018-09-08T09:25:47.666Z,7.93
2018-09-08T09:28:15.560Z,8.60
2018-09-08T09:30:43.346Z,7.30
2018-09-08T09:33:11.103Z,6.87
2018-09-08T09:35:39.001Z,8.60
2018-09-08T09:38:06.799Z,8.30
2018-09-08T09:40:34.584Z,6.07
2018-09-08T09:43:02.372Z,5.70
2018-09-08T09:45:30.151Z,6.77
2018-09-08T09:47:58.043Z,7.43
2018-09-08T09:50:25.908Z,7.80
2018-09-08T09:52:53.858Z,8.17
2018-09-08T09:55:21.702Z,7.73
2018-09-08T09:57:49.499Z,7.23
2018-09-08T10:00:22.640Z,6.43
2018-09-08T10:02:54.683Z,6.70
2018-09-08T10:05:23.677Z,8.00
2018-09-08T10:07:52.034Z,6.63
2018-09-08T10:10:22.034Z,6.40
2018-09-08T10:12:49.895Z,8.00
2018-09-08T10:15:17.696Z,6.67
2018-09-08T10:17:45.956Z,8.73
2018-09-08T10:20:17.054Z,7.90
2018-09-08T10:22:44.932Z,10.20
2018-09-08T10:25:15.151Z,8.03
2018-09-08T10:27:43.896Z,8.33
2018-09-08T10:30:12.320Z,8.40
2018-09-08T10:32:40.883Z,6.73
2018-09-08T10:35:08.813Z,9.37
2018-09-08T10:37:36.624Z,7.37
2018-09-08T10:40:04.758Z,8.70
2018-09-08T10:42:32.622Z,6.37
2018-09-08T10:45:00.534Z,6.73
2018-09-08T10:47:28.312Z,10.23
2018-09-08T10:49:56.284Z,7.03
2018-09-08T10:52:27.760Z,6.97
2018-09-08T10:54:55.646Z,9.33
2018-09-08T10:57:23.436Z,8.87
2018-09-08T10:59:51.288Z,6.43
2018-09-08T11:02:19.430Z,6.97
2018-09-08T11:04:47.149Z,7.50
2018-09-08T11:07:14.931Z,7.37
2018-09-08T11:09:42.913Z,8.90
2018-09-08T11:12:10.790Z,9.97
2018-09-08T11:14:38.656Z,6.63
2018-09-08T11:17:06.497Z,6.37
2018-09-08T11:19:34.343Z,7.00
2018-09-08T11:22:02.190Z,7.10
2018-09-08T11:24:30.230Z,7.27
2018-09-08T11:26:58.031Z,7.93
2018-09-08T11:29:25.976Z,8.23
2018-09-08T11:31:53.839Z,6.67
2018-09-08T11:34:21.647Z,5.07
2018-09-08T11:36:49.535Z,7.23
2018-09-08T11:39:17.322Z,8.07
2018-09-08T11:41:45.582Z,5.83
2018-09-08T11:44:13.449Z,9.47
2018-09-08T11:46:41.275Z,6.07
2018-09-08T11:49:09.065Z,9.10
2018-09-08T11:51:36.910Z,7.17
2018-09-08T11:54:04.767Z,8.97
2018-09-08T11:56:32.615Z,6.23
2018-09-08T11:59:00.407Z,6.43
2018-09-08T12:01:28.279Z,9.30
2018-09-08T12:03:56.620Z,6.10
2018-09-08T12:06:24.582Z,7.97
2018-09-08T12:08:52.432Z,9.33
2018-09-08T12:11:20.284Z,7.93
2018-09-08T12:13:48.129Z,7.27
2018-09-08T12:16:16.183Z,7.47
2018-09-08T12:18:44.351Z,7.53
2018-09-08T12:21:12.143Z,6.50
2018-09-08T12:23:40.919Z,9.00
2018-09-08T12:26:09.372Z,8.60
2018-09-08T12:28:37.311Z,6.53
2018-09-08T12:31:05.099Z,6.90
2018-09-08T12:33:32.925Z,9.40
2018-09-08T12:36:00.781Z,6.13
2018-09-08T12:38:28.624Z,6.70
2018-09-08T12:40:56.495Z,7.80
2018-09-08T12:43:24.361Z,8.90
2018-09-08T12:45:52.175Z,6.47
2018-09-08T12:48:20.087Z,6.07
2018-09-08T12:50:47.894Z,7.40
2018-09-08T12:53:15.687Z,6.60
2018-09-08T12:55:43.551Z,10.57
2018-09-08T12:58:11.424Z,6.73
2018-09-08T13:00:39.208Z,8.00
2018-09-08T13:03:07.395Z,6.23
2018-09-08T13:05:35.199Z,6.60
2018-09-08T13:08:02.980Z,7.53
2018-09-08T13:10:30.872Z,7.43
2018-09-08T13:12:58.644Z,5.70
2018-09-08T13:15:26.544Z,7.67
2018-09-08T13:17:54.385Z,6.77
2018-09-08T13:20:22.206Z,6.73
2018-09-08T13:22:50.094Z,6.27
2018-09-08T13:25:17.895Z,6.87
2018-09-08T13:27:46.107Z,10.07
2018-09-08T13:30:13.908Z,11.47
2018-09-08T13:32:41.785Z,7.60
2018-09-08T13:35:09.578Z,6.97
2018-09-08T13:37:37.408Z,6.57
2018-09-08T13:40:05.228Z,6.87
2018-09-08T13:42:33.045Z,6.73
2018-09-08T13:45:00.921Z,6.70
2018-09-08T13:47:28.846Z,8.10
2018-09-08T13:49:56.759Z,6.13
2018-09-08T13:52:24.621Z,10.53
2018-09-08T13:54:52.427Z,6.93
2018-09-08T13:57:20.536Z,8.20
2018-09-08T13:59:48.363Z,5.17
2018-09-08T14:02:16.855Z,7.87
2018-09-08T14:04:44.684Z,6.87
2018-09-08T14:07:12.543Z,6.73
2018-09-08T14:09:40.732Z,7.43
2018-09-08T14:12:08.793Z,7.00
2018-09-08T14:14:36.598Z,8.30
2018-09-08T14:17:04.476Z,8.37
2018-09-08T14:19:32.275Z,11.77
2018-09-08T14:22:00.225Z,11.73
2018-09-08T14:24:28.119Z,8.33
2018-09-08T14:26:56.138Z,8.10
2018-09-08T14:29:23.941Z,7.73
2018-09-08T14:31:51.812Z,8.40
2018-09-08T14:34:19.652Z,7.53
2018-09-08T14:36:47.589Z,9.53
2018-09-08T14:39:15.382Z,8.63
2018-09-08T14:41:44.780Z,7.97
2018-09-08T14:44:12.627Z,8.47
2018-09-08T14:46:40.507Z,9.70
2018-09-08T14:49:08.411Z,12.27
2018-09-08T14:51:36.263Z,10.10
2018-09-08T14:54:04.091Z,8.07
2018-09-08T14:56:31.881Z,10.77
2018-09-08T14:58:59.816Z,10.00
2018-09-08T15:01:27.695Z,8.20
2018-09-08T15:03:55.520Z,8.97
2018-09-08T15:06:23.338Z,10.50
2018-09-08T15:08:51.205Z,13.23
2018-09-08T15:11:19.064Z,11.83
2018-09-08T15:13:46.899Z,9.77
2018-09-08T15:16:14.744Z,13.17
2018-09-08T15:18:42.611Z,12.37
2018-09-08T15:21:10.420Z,8.87
2018-09-08T15:23:38.322Z,10.33
2018-09-08T15:26:06.103Z,11.77
2018-09-08T15:28:33.900Z,10.40
2018-09-08T15:31:02.139Z,11.00
2018-09-08T15:33:29.978Z,10.07
2018-09-08T15:35:57.848Z,10.20
2018-09-08T15:38:25.875Z,11.17
2018-09-08T15:40:54.372Z,11.90
2018-09-08T15:43:22.211Z,10.73
2018-09-08T15:45:50.050Z,12.47
2018-09-08T15:48:17.846Z,12.90
2018-09-08T15:50:45.620Z,9.40
2018-09-08T15:53:13.486Z,8.97
2018-09-08T15:55:41.386Z,13.93
2018-09-08T15:58:09.294Z,15.17
2018-09-08T16:00:37.136Z,18.60
2018-09-08T16:03:04.995Z,10.83
2018-09-08T16:05:32.802Z,9.63
2018-09-08T16:08:04.083Z,11.83
2018-09-08T16:10:32.570Z,11.30
2018-09-08T16:13:00.388Z,10.30
2018-09-08T16:15:28.264Z,10.67
2018-09-08T16:17:56.112Z,12.47
2018-09-08T16:20:23.972Z,10.17
2018-09-08T16:22:52.840Z,42.77
2018-09-08T16:25:20.623Z,75.77
2018-09-08T16:27:48.520Z,16.77
2018-09-08T16:30:16.364Z,16.77
2018-09-08T16:32:44.252Z,11.63
2018-09-08T16:35:12.110Z,15.50
2018-09-08T16:37:39.895Z,24.33
2018-09-08T16:40:07.727Z,25.53
2018-09-08T16:42:35.563Z,16.37
2018-09-08T16:45:03.431Z,9.97
2018-09-08T16:47:31.212Z,17.73
2018-09-08T16:49:59.067Z,15.77
2018-09-08T16:52:26.931Z,14.30
2018-09-08T16:54:54.749Z,8.33
2018-09-08T16:57:23.419Z,8.80
2018-09-08T16:59:51.233Z,8.83
2018-09-08T17:02:20.124Z,10.00
2018-09-08T17:04:48.051Z,11.23
2018-09-08T17:07:15.939Z,10.33
2018-09-08T17:09:43.715Z,12.63
2018-09-08T17:12:11.534Z,12.20
2018-09-08T17:14:39.393Z,9.93
2018-09-08T17:17:07.256Z,9.30
2018-09-08T17:19:35.130Z,11.53
2018-09-08T17:22:02.916Z,10.83
2018-09-08T17:24:30.779Z,16.30
2018-09-08T17:26:58.555Z,14.37
2018-09-08T17:29:26.332Z,14.37
2018-09-08T17:31:54.121Z,15.67
2018-09-08T17:34:21.917Z,9.30
2018-09-08T17:36:49.731Z,10.03
2018-09-08T17:39:17.627Z,12.00
2018-09-08T17:41:45.480Z,11.73
2018-09-08T17:44:13.262Z,9.87
2018-09-08T17:46:41.439Z,9.73
2018-09-08T17:49:09.221Z,12.57
2018-09-08T17:51:37.079Z,11.00
2018-09-08T17:54:04.919Z,12.03
2018-09-08T17:56:32.820Z,13.97
2018-09-08T17:59:00.745Z,14.37
2018-09-08T18:01:28.518Z,11.87
2018-09-08T18:03:56.380Z,11.00
2018-09-08T18:06:24.227Z,10.07
2018-09-08T18:08:52.027Z,16.27
2018-09-08T18:11:20.185Z,14.10
2018-09-08T18:13:48.041Z,12.33
2018-09-08T18:16:15.815Z,8.53
2018-09-08T18:18:43.652Z,12.00
2018-09-08T18:21:11.510Z,13.47
2018-09-08T18:23:40.379Z,10.80
2018-09-08T18:26:08.150Z,12.23
2018-09-08T18:28:35.931Z,12.60
2018-09-08T18:31:04.056Z,10.40
2018-09-08T18:33:31.826Z,14.37
2018-09-08T18:36:00.199Z,12.10
2018-09-08T18:38:28.128Z,11.37
2018-09-08T18:40:56.005Z,12.33
2018-09-08T18:43:23.844Z,10.10
2018-09-08T18:45:51.710Z,10.90
2018-09-08T18:48:19.721Z,13.20
2018-09-08T18:50:47.539Z,12.73
2018-09-08T18:53:15.356Z,10.00
2018-09-08T18:55:43.446Z,12.47
2018-09-08T18:58:11.688Z,11.40
2018-09-08T19:00:39.467Z,9.73
2018-09-08T19:03:07.564Z,10.73
2018-09-08T19:05:35.356Z,14.57
2018-09-08T19:08:03.147Z,15.97
2018-09-08T19:10:34.686Z,12.13
2018-09-08T19:13:02.801Z,11.77
2018-09-08T19:15:30.606Z,12.50
2018-09-08T19:17:58.443Z,12.57
2018-09-08T19:20:31.396Z,11.33
2018-09-08T19:22:59.408Z,13.40
2018-09-08T19:25:27.237Z,11.40
2018-09-08T19:27:55.120Z,12.70
2018-09-08T19:30:22.920Z,24.33
2018-09-08T19:32:50.777Z,12.97
2018-09-08T19:35:23.688Z,13.17
2018-09-08T19:37:52.131Z,12.17
2018-09-08T19:40:25.099Z,11.87
2018-09-08T19:42:52.970Z,11.03
2018-09-08T19:45:20.729Z,11.43
2018-09-08T19:47:53.817Z,11.93
2018-09-08T19:50:21.634Z,12.50
2018-09-08T19:52:54.676Z,9.70
2018-09-08T19:55:22.524Z,11.23
2018-09-08T19:57:55.428Z,12.80
2018-09-08T20:00:23.483Z,10.97
2018-09-08T20:02:51.416Z,11.83
2018-09-08T20:05:19.321Z,12.30
2018-09-08T20:07:47.086Z,11.43
2018-09-08T20:10:15.028Z,11.57
2018-09-08T20:12:42.851Z,11.43
2018-09-08T20:15:11.041Z,11.53
2018-09-08T20:17:38.841Z,14.23
2018-09-08T20:20:07.172Z,9.97
2018-09-08T20:22:35.024Z,12.27
2018-09-08T20:25:02.832Z,12.30
2018-09-08T20:27:30.712Z,11.47
2018-09-08T20:29:58.584Z,14.20
2018-09-08T20:32:26.387Z,13.07
2018-09-08T20:34:54.177Z,14.57
2018-09-08T20:37:22.018Z,14.70
2018-09-08T20:39:49.859Z,10.67
2018-09-08T20:42:17.668Z,15.93
2018-09-08T20:44:45.554Z,11.50
2018-09-08T20:47:13.327Z,11.30
2018-09-08T20:49:41.175Z,10.97
2018-09-08T20:52:08.964Z,10.90
2018-09-08T20:54:36.737Z,10.87
2018-09-08T20:57:04.716Z,11.17
2018-09-08T20:59:32.492Z,9.43
2018-09-08T21:02:00.468Z,10.80
2018-09-08T21:04:28.243Z,9.67
2018-09-08T21:06:56.111Z,11.43
2018-09-08T21:09:23.903Z,10.17
2018-09-08T21:11:51.793Z,10.83
2018-09-08T21:14:19.623Z,10.17
2018-09-08T21:16:47.419Z,13.07
2018-09-08T21:19:15.349Z,12.57
2018-09-08T21:21:43.184Z,11.60
2018-09-08T21:24:11.040Z,9.93
2018-09-08T21:26:38.895Z,10.20
2018-09-08T21:29:06.756Z,11.90
2018-09-08T21:31:34.612Z,10.10
2018-09-08T21:34:02.552Z,14.17
2018-09-08T21:36:30.439Z,12.10
2018-09-08T21:38:58.291Z,11.43
2018-09-08T21:41:26.123Z,9.30
2018-09-08T21:43:53.958Z,8.60
2018-09-08T21:46:21.747Z,11.07
2018-09-08T21:48:49.550Z,10.80
2018-09-08T21:51:17.330Z,12.83
2018-09-08T21:53:45.175Z,10.97
2018-09-08T21:56:12.951Z,9.73
2018-09-08T21:58:40.743Z,11.67
2018-09-08T22:01:13.867Z,10.60
2018-09-08T22:03:41.700Z,12.57
2018-09-08T22:06:09.523Z,10.73
2018-09-08T22:08:37.839Z,10.70
2018-09-08T22:11:05.995Z,10.13
2018-09-08T22:13:34.135Z,9.80
2018-09-08T22:16:02.114Z,9.10
2018-09-08T22:18:30.411Z,14.00
2018-09-08T22:20:58.244Z,10.57
2018-09-08T22:23:26.172Z,8.07
2018-09-08T22:25:54.068Z,12.13
2018-09-08T22:28:22.011Z,10.30
2018-09-08T22:30:50.751Z,9.63
2018-09-08T22:33:18.523Z,9.90
2018-09-08T22:35:46.419Z,10.80
2018-09-08T22:38:14.583Z,9.37
2018-09-08T22:40:42.419Z,10.67
2018-09-08T22:43:10.424Z,9.53
2018-09-08T22:45:38.360Z,9.60
2018-09-08T22:48:06.184Z,15.53
2018-09-08T22:50:33.967Z,10.97
2018-09-08T22:53:01.761Z,10.47
2018-09-08T22:55:29.836Z,10.63
2018-09-08T22:57:57.690Z,11.87
2018-09-08T23:00:25.600Z,9.37
2018-09-08T23:02:53.446Z,9.87
2018-09-08T23:05:21.250Z,8.67
2018-09-08T23:07:49.155Z,9.87
2018-09-08T23:10:16.973Z,9.93
2018-09-08T23:12:44.759Z,11.00
2018-09-08T23:15:12.621Z,11.07
2018-09-08T23:17:40.432Z,11.73
2018-09-08T23:20:08.345Z,8.63
2018-09-08T23:22:36.195Z,10.50
2018-09-08T23:25:04.036Z,9.73
2018-09-08T23:27:31.925Z,12.23
2018-09-08T23:29:59.739Z,10.63
2018-09-08T23:32:27.598Z,9.10
2018-09-08T23:34:56.430Z,9.90
2018-09-08T23:37:24.344Z,11.20
2018-09-08T23:39:52.153Z,11.40
2018-09-08T23:42:19.935Z,10.73
2018-09-08T23:44:47.751Z,10.17
2018-09-08T23:47:15.603Z,9.53
2018-09-08T23:49:43.443Z,13.13
2018-09-08T23:52:11.219Z,11.00
2018-09-08T23:54:39.120Z,12.73
2018-09-08T23:57:06.894Z,10.47
2018-09-08T23:59:34.796Z,8.77
